Time;durP1;ratioP1;P1;durP2;ratioP2;P2;SDS_P1;SDS_P2;PMS_P1;PMS_P2;Temp;Humidity;BMP_temperature;BMP_pressure;BME280_temperature;BME280_humidity;BME280_pressure;Samples;Min_cycle;Max_cycle;Signal;HPM_P1;HPM_P2
2023/09/17 00:00:37;;;;;;;5.20;4.70;;;;;;;;;;4952144;28;20196;-81
2023/09/17 00:03:03;;;;;;;5.20;4.70;;;;;;;;;;4952900;28;20209;-81
2023/09/17 00:05:31;;;;;;;5.73;4.77;;;;;;;;;;4951975;28;20181;-81
2023/09/17 00:07:58;;;;;;;5.30;4.80;;;;;;;;;;4951819;29;20205;-81
2023/09/17 00:10:24;;;;;;;5.40;4.90;;;;;;;;;;4933945;29;20248;-81
2023/09/17 00:12:55;;;;;;;5.57;4.90;;;;;;;;;;4950606;29;20544;-81
2023/09/17 00:15:22;;;;;;;5.23;4.80;;;;;;;;;;4952734;28;20225;-81
2023/09/17 00:17:48;;;;;;;4.97;4.57;;;;;;;;;;4952370;28;20730;-81
2023/09/17 00:20:14;;;;;;;5.47;5.07;;;;;;;;;;4955600;28;20196;-81
2023/09/17 00:22:41;;;;;;;5.47;4.97;;;;;;;;;;4970407;28;20770;-81
2023/09/17 00:25:07;;;;;;;5.10;4.70;;;;;;;;;;4957887;28;20177;-81
2023/09/17 00:27:33;;;;;;;5.47;4.97;;;;;;;;;;4953251;28;20296;-81
2023/09/17 00:30:01;;;;;;;5.30;4.80;;;;;;;;;;4917849;29;20193;-81
2023/09/17 00:32:27;;;;;;;6.80;4.80;;;;;;;;;;4935334;29;20702;-81
2023/09/17 00:34:53;;;;;;;5.30;4.90;;;;;;;;;;4957480;28;20193;-81
2023/09/17 00:37:19;;;;;;;5.40;4.90;;;;;;;;;;4956900;28;20216;-81
2023/09/17 00:39:46;;;;;;;5.07;4.67;;;;;;;;;;4957639;28;20548;-80
2023/09/17 00:42:12;;;;;;;5.30;4.87;;;;;;;;;;4954982;28;20508;-81
2023/09/17 00:44:38;;;;;;;5.63;5.13;;;;;;;;;;4957092;28;21748;-81
2023/09/17 00:47:05;;;;;;;6.10;5.50;;;;;;;;;;4953913;28;20655;-81
2023/09/17 00:49:32;;;;;;;5.63;4.83;;;;;;;;;;4953157;29;20181;-81
2023/09/17 00:51:59;;;;;;;5.27;4.77;;;;;;;;;;4969871;28;20203;-81
2023/09/17 00:54:27;;;;;;;5.47;5.00;;;;;;;;;;4938213;29;20343;-81
2023/09/17 00:56:53;;;;;;;4.90;4.50;;;;;;;;;;4940227;29;20221;-81
2023/09/17 00:59:20;;;;;;;5.17;4.67;;;;;;;;;;4959475;29;20182;-81
2023/09/17 01:01:47;;;;;;;5.63;5.13;;;;;;;;;;4955269;29;20236;-82
2023/09/17 01:04:15;;;;;;;6.07;4.70;;;;;;;;;;4951212;29;20689;-81
2023/09/17 01:06:41;;;;;;;5.83;5.30;;;;;;;;;;4952568;29;20287;-82
2023/09/17 01:09:08;;;;;;;5.93;5.33;;;;;;;;;;4952788;29;20177;-82
2023/09/17 01:11:35;;;;;;;5.70;5.10;;;;;;;;;;4936233;29;20208;-82
2023/09/17 01:14:12;;;;;;;5.97;5.37;;;;;;;;;;4936402;29;20287;-81
2023/09/17 01:16:40;;;;;;;5.93;5.33;;;;;;;;;;4968002;28;20228;-82
2023/09/17 01:19:08;;;;;;;7.53;6.10;;;;;;;;;;4952846;29;20197;-82
2023/09/17 01:21:39;;;;;;;6.10;5.60;;;;;;;;;;4953428;28;20240;-81
2023/09/17 01:24:22;;;;;;;9.43;6.30;;;;;;;;;;4951029;29;20288;-81
2023/09/17 01:26:59;;;;;;;6.80;6.10;;;;;;;;;;4953027;29;20236;-83
2023/09/17 01:29:26;;;;;;;6.83;6.13;;;;;;;;;;4952321;29;20179;-83
2023/09/17 01:31:55;;;;;;;7.73;6.73;;;;;;;;;;4951274;29;20564;-82
2023/09/17 01:34:22;;;;;;;8.17;7.37;;;;;;;;;;4952031;29;20573;-82
2023/09/17 01:36:49;;;;;;;9.03;8.13;;;;;;;;;;4951548;29;20232;-82
2023/09/17 01:39:22;;;;;;;10.20;8.00;;;;;;;;;;4949923;29;20561;-81
2023/09/17 01:41:49;;;;;;;8.73;7.83;;;;;;;;;;4953063;28;20217;-81
2023/09/17 01:44:15;;;;;;;8.60;7.80;;;;;;;;;;4961602;28;20304;-81
2023/09/17 01:46:42;;;;;;;9.30;8.03;;;;;;;;;;4951189;29;20574;-82
2023/09/17 01:49:10;;;;;;;8.30;7.50;;;;;;;;;;4954437;28;20193;-81
2023/09/17 01:51:38;;;;;;;9.97;8.27;;;;;;;;;;4952934;28;20743;-80
2023/09/17 01:54:05;;;;;;;9.57;7.60;;;;;;;;;;4951798;29;20193;-80
2023/09/17 01:56:31;;;;;;;7.67;6.97;;;;;;;;;;4953111;28;20620;-80
2023/09/17 01:58:57;;;;;;;9.00;7.67;;;;;;;;;;4951417;29;20193;-80
2023/09/17 02:01:23;;;;;;;8.83;7.30;;;;;;;;;;4951053;29;20189;-80
2023/09/17 02:03:49;;;;;;;7.73;7.03;;;;;;;;;;4951910;29;20580;-80
2023/09/17 02:06:16;;;;;;;8.50;7.33;;;;;;;;;;4950850;29;20755;-80
2023/09/17 02:08:42;;;;;;;7.30;6.67;;;;;;;;;;4951273;29;20205;-80
2023/09/17 02:11:09;;;;;;;7.83;7.03;;;;;;;;;;4933579;29;20281;-80
2023/09/17 02:13:35;;;;;;;7.03;6.43;;;;;;;;;;4953342;29;20531;-80
2023/09/17 02:16:02;;;;;;;8.40;7.67;;;;;;;;;;4951641;29;20786;-80
2023/09/17 02:18:29;;;;;;;7.00;6.37;;;;;;;;;;4950961;29;20217;-80
2023/09/17 02:20:56;;;;;;;9.07;6.47;;;;;;;;;;4953224;29;20240;-80
2023/09/17 02:23:22;;;;;;;8.07;6.60;;;;;;;;;;4950912;29;20213;-80
2023/09/17 02:25:48;;;;;;;7.63;6.30;;;;;;;;;;4949352;29;20205;-80
2023/09/17 02:28:15;;;;;;;6.73;6.13;;;;;;;;;;4944867;29;20240;-80
2023/09/17 02:30:41;;;;;;;7.63;6.90;;;;;;;;;;4953507;28;20212;-80
2023/09/17 02:33:10;;;;;;;7.10;6.40;;;;;;;;;;4952921;28;20184;-80
2023/09/17 02:35:37;;;;;;;7.40;6.60;;;;;;;;;;4951751;29;20597;-80
2023/09/17 02:38:04;;;;;;;8.40;6.73;;;;;;;;;;4951253;29;20209;-80
2023/09/17 02:40:30;;;;;;;6.80;6.20;;;;;;;;;;4951795;29;20252;-80
2023/09/17 02:42:56;;;;;;;6.90;6.20;;;;;;;;;;4951884;29;20592;-80
2023/09/17 02:45:23;;;;;;;7.50;6.80;;;;;;;;;;4938771;29;20332;-80
2023/09/17 02:47:50;;;;;;;6.97;6.27;;;;;;;;;;4955728;29;20197;-80
2023/09/17 02:50:16;;;;;;;7.03;6.30;;;;;;;;;;4954876;29;20189;-80
2023/09/17 02:52:42;;;;;;;7.40;6.70;;;;;;;;;;4956041;29;20208;-80
2023/09/17 02:55:08;;;;;;;7.93;7.13;;;;;;;;;;4962683;28;20185;-80
2023/09/17 02:57:35;;;;;;;7.70;7.00;;;;;;;;;;4939187;29;20197;-81
2023/09/17 03:00:04;;;;;;;7.73;6.97;;;;;;;;;;4952581;28;20192;-80
2023/09/17 03:02:31;;;;;;;9.53;7.03;;;;;;;;;;4952924;29;20193;-80
2023/09/17 03:04:58;;;;;;;8.47;7.07;;;;;;;;;;4952094;29;20240;-81
2023/09/17 03:07:25;;;;;;;8.90;7.03;;;;;;;;;;4952362;29;20690;-80
2023/09/17 03:09:52;;;;;;;7.73;7.03;;;;;;;;;;4920818;29;20338;-81
2023/09/17 03:12:18;;;;;;;8.97;7.93;;;;;;;;;;4953970;29;20191;-80
2023/09/17 03:14:44;;;;;;;8.00;6.70;;;;;;;;;;4952187;28;20238;-80
2023/09/17 03:17:10;;;;;;;9.87;7.53;;;;;;;;;;4935725;29;20226;-80
2023/09/17 03:19:37;;;;;;;7.60;6.80;;;;;;;;;;4951524;29;20188;-80
2023/09/17 03:22:04;;;;;;;8.70;7.30;;;;;;;;;;4935781;29;20197;-80
2023/09/17 03:24:30;;;;;;;7.67;6.90;;;;;;;;;;4951240;29;20204;-80
2023/09/17 03:26:56;;;;;;;7.77;6.90;;;;;;;;;;4950195;29;20205;-80
2023/09/17 03:29:24;;;;;;;7.93;6.70;;;;;;;;;;4940535;29;20197;-80
2023/09/17 03:31:50;;;;;;;7.43;6.83;;;;;;;;;;4951130;29;20177;-80
2023/09/17 03:34:19;;;;;;;7.40;6.70;;;;;;;;;;4948134;29;20257;-80
2023/09/17 03:36:45;;;;;;;7.43;6.67;;;;;;;;;;4947797;29;20287;-80
2023/09/17 03:39:12;;;;;;;7.47;6.73;;;;;;;;;;4932072;29;20186;-80
2023/09/17 03:41:40;;;;;;;6.90;6.30;;;;;;;;;;4947872;29;20251;-80
2023/09/17 03:44:09;;;;;;;6.57;5.93;;;;;;;;;;4950851;29;20213;-80
2023/09/17 03:46:37;;;;;;;6.73;6.07;;;;;;;;;;4948277;28;20650;-80
2023/09/17 03:49:03;;;;;;;7.80;6.50;;;;;;;;;;4949965;29;20728;-80
2023/09/17 03:51:30;;;;;;;6.63;6.03;;;;;;;;;;4951178;29;20200;-80
2023/09/17 03:53:56;;;;;;;6.70;6.10;;;;;;;;;;4952056;28;20205;-80
2023/09/17 03:56:24;;;;;;;6.33;5.73;;;;;;;;;;4950368;29;20201;-80
2023/09/17 03:58:51;;;;;;;6.20;5.60;;;;;;;;;;4948291;29;20196;-80
2023/09/17 04:01:18;;;;;;;7.10;6.40;;;;;;;;;;4935427;29;20203;-80
2023/09/17 04:03:45;;;;;;;6.57;5.97;;;;;;;;;;4934901;29;20624;-80
2023/09/17 04:06:12;;;;;;;6.97;5.93;;;;;;;;;;4958014;28;20283;-80
2023/09/17 04:08:38;;;;;;;6.20;5.70;;;;;;;;;;4969068;28;20201;-80
2023/09/17 04:11:04;;;;;;;7.00;6.30;;;;;;;;;;4937454;29;20257;-81
2023/09/17 04:13:31;;;;;;;7.20;6.60;;;;;;;;;;4955861;28;20193;-80
2023/09/17 04:15:58;;;;;;;7.13;6.23;;;;;;;;;;4934295;29;20193;-81
2023/09/17 04:18:24;;;;;;;6.70;6.10;;;;;;;;;;4936142;29;20273;-80
2023/09/17 04:20:51;;;;;;;6.77;6.17;;;;;;;;;;4953483;29;20185;-80
2023/09/17 04:23:17;;;;;;;7.80;7.00;;;;;;;;;;4954577;28;20299;-80
2023/09/17 04:25:45;;;;;;;7.23;6.63;;;;;;;;;;4946917;28;20280;-80
2023/09/17 04:28:11;;;;;;;7.90;7.10;;;;;;;;;;4932555;29;20212;-80
2023/09/17 04:30:38;;;;;;;7.83;7.00;;;;;;;;;;4938905;29;20280;-80
2023/09/17 04:33:04;;;;;;;7.93;7.13;;;;;;;;;;4955211;29;20196;-80
2023/09/17 04:35:30;;;;;;;7.77;7.03;;;;;;;;;;4942595;29;20193;-80
2023/09/17 04:37:57;;;;;;;8.43;7.53;;;;;;;;;;4959735;29;20255;-80
2023/09/17 04:40:31;;;;;;;9.53;8.50;;;;;;;;;;4941988;29;20237;-80
2023/09/17 04:43:03;;;;;;;9.60;8.70;;;;;;;;;;4957695;29;20217;-80
2023/09/17 04:45:34;;;;;;;10.33;9.33;;;;;;;;;;4939101;29;20217;-80
2023/09/17 04:48:03;;;;;;;12.17;9.73;;;;;;;;;;4955216;29;20212;-80
2023/09/17 04:50:29;;;;;;;10.60;9.07;;;;;;;;;;4954734;29;20189;-80
2023/09/17 04:52:56;;;;;;;10.30;9.30;;;;;;;;;;4926791;29;20283;-80
2023/09/17 04:55:22;;;;;;;9.40;8.50;;;;;;;;;;4949464;29;20182;-80
2023/09/17 04:57:50;;;;;;;9.40;8.40;;;;;;;;;;4954572;29;20211;-80
2023/09/17 05:00:16;;;;;;;9.43;8.53;;;;;;;;;;4954900;28;20181;-80
2023/09/17 05:02:42;;;;;;;8.70;7.83;;;;;;;;;;4938765;29;20186;-80
2023/09/17 05:05:09;;;;;;;8.73;7.93;;;;;;;;;;4954784;29;20189;-80
2023/09/17 05:07:42;;;;;;;8.53;7.73;;;;;;;;;;4953269;29;20216;-80
2023/09/17 05:10:08;;;;;;;10.40;9.43;;;;;;;;;;4937932;29;20189;-80
2023/09/17 05:12:36;;;;;;;9.70;8.70;;;;;;;;;;4944033;29;20217;-80
2023/09/17 05:15:02;;;;;;;10.37;8.37;;;;;;;;;;4938387;29;20189;-80
2023/09/17 05:17:30;;;;;;;10.03;8.93;;;;;;;;;;4926192;29;20589;-80
2023/09/17 05:19:56;;;;;;;10.10;9.10;;;;;;;;;;4952502;29;20196;-80
2023/09/17 05:22:22;;;;;;;13.07;10.73;;;;;;;;;;4952410;29;20334;-80
2023/09/17 05:24:48;;;;;;;11.43;10.27;;;;;;;;;;4921199;29;20209;-80
2023/09/17 05:27:15;;;;;;;10.27;9.27;;;;;;;;;;4939561;29;20217;-80
2023/09/17 05:29:41;;;;;;;9.73;8.83;;;;;;;;;;4940886;28;20752;-80
2023/09/17 05:32:08;;;;;;;10.07;8.73;;;;;;;;;;4938411;29;20185;-80
2023/09/17 05:34:34;;;;;;;10.73;8.70;;;;;;;;;;4953098;29;20186;-80
2023/09/17 05:37:00;;;;;;;9.17;8.20;;;;;;;;;;4954137;29;20629;-80
2023/09/17 05:39:26;;;;;;;9.63;8.20;;;;;;;;;;4935497;29;20200;-80
2023/09/17 05:41:54;;;;;;;9.60;8.70;;;;;;;;;;4937334;29;20248;-80
2023/09/17 05:44:22;;;;;;;8.83;7.93;;;;;;;;;;4953503;29;20217;-80
2023/09/17 05:46:48;;;;;;;9.13;8.17;;;;;;;;;;4937506;29;20236;-80
2023/09/17 05:49:15;;;;;;;8.63;7.80;;;;;;;;;;4957187;28;20211;-80
2023/09/17 05:51:41;;;;;;;8.33;7.63;;;;;;;;;;4952110;29;20245;-80
2023/09/17 05:54:08;;;;;;;8.80;7.93;;;;;;;;;;4952307;28;20768;-80
2023/09/17 05:56:35;;;;;;;8.73;7.90;;;;;;;;;;4953761;29;20577;-80
2023/09/17 05:59:01;;;;;;;9.37;8.17;;;;;;;;;;4969277;28;20185;-80
2023/09/17 06:01:27;;;;;;;8.00;7.23;;;;;;;;;;4938037;29;20193;-80
2023/09/17 06:03:53;;;;;;;8.93;7.40;;;;;;;;;;4949913;29;20319;-80
2023/09/17 06:06:19;;;;;;;8.57;7.77;;;;;;;;;;4934590;28;20192;-80
2023/09/17 06:08:48;;;;;;;8.40;7.70;;;;;;;;;;4951634;29;20200;-80
2023/09/17 06:11:14;;;;;;;9.10;8.30;;;;;;;;;;4934997;29;20265;-80
2023/09/17 06:13:41;;;;;;;8.50;7.70;;;;;;;;;;4951700;29;20272;-80
2023/09/17 06:16:07;;;;;;;9.30;8.50;;;;;;;;;;4952659;28;21077;-80
2023/09/17 06:18:34;;;;;;;8.87;7.97;;;;;;;;;;4937841;29;20205;-80
2023/09/17 06:21:00;;;;;;;9.30;8.43;;;;;;;;;;4952171;28;20819;-80
2023/09/17 06:23:27;;;;;;;9.47;8.47;;;;;;;;;;4956083;28;20217;-80
2023/09/17 06:25:54;;;;;;;10.83;8.37;;;;;;;;;;4954805;29;20193;-80
2023/09/17 06:28:20;;;;;;;9.20;8.30;;;;;;;;;;4953790;29;20264;-80
2023/09/17 06:30:48;;;;;;;9.80;8.80;;;;;;;;;;4955539;28;20181;-80
2023/09/17 06:33:14;;;;;;;8.70;7.90;;;;;;;;;;4930642;29;20219;-80
2023/09/17 06:35:40;;;;;;;8.87;7.83;;;;;;;;;;4948220;28;20186;-87
2023/09/17 06:38:07;;;;;;;8.97;7.80;;;;;;;;;;4917106;29;20201;-86
2023/09/17 06:40:33;;;;;;;8.50;7.70;;;;;;;;;;4935843;29;20189;-87
2023/09/17 06:42:59;;;;;;;8.57;7.77;;;;;;;;;;4933720;29;20257;-87
2023/09/17 06:45:25;;;;;;;8.50;7.60;;;;;;;;;;4933237;29;20276;-87
2023/09/17 06:47:51;;;;;;;7.60;6.90;;;;;;;;;;4939765;29;20602;-86
2023/09/17 06:50:18;;;;;;;7.50;6.77;;;;;;;;;;4950742;29;20185;-88
2023/09/17 06:52:44;;;;;;;7.83;7.00;;;;;;;;;;4950317;29;20295;-88
2023/09/17 06:55:10;;;;;;;8.50;7.70;;;;;;;;;;4935028;29;20189;-88
2023/09/17 06:57:37;;;;;;;8.03;7.33;;;;;;;;;;4921908;29;20221;-89
2023/09/17 07:00:04;;;;;;;7.00;6.40;;;;;;;;;;4950544;29;20189;-88
2023/09/17 07:02:30;;;;;;;8.40;7.60;;;;;;;;;;4951620;29;20628;-88
2023/09/17 07:05:00;;;;;;;7.60;7.00;;;;;;;;;;4935842;29;20213;-88
2023/09/17 07:07:26;;;;;;;8.33;7.60;;;;;;;;;;4917470;29;20276;-88
2023/09/17 07:09:52;;;;;;;7.97;7.27;;;;;;;;;;4951169;29;20196;-84
2023/09/17 07:12:21;;;;;;;8.77;6.90;;;;;;;;;;4951755;29;20184;-89
2023/09/17 07:14:47;;;;;;;7.60;6.90;;;;;;;;;;4920212;29;20247;-84
2023/09/17 07:17:13;;;;;;;7.67;6.97;;;;;;;;;;4949128;28;20228;-86
2023/09/17 07:19:39;;;;;;;7.33;6.73;;;;;;;;;;4929027;29;20193;-82
2023/09/17 07:22:11;;;;;;;7.80;7.10;;;;;;;;;;4952152;28;20208;-78
2023/09/17 07:24:38;;;;;;;7.70;7.00;;;;;;;;;;4952984;28;20213;-80
2023/09/17 07:27:04;;;;;;;7.70;7.00;;;;;;;;;;4950124;29;20888;-80
2023/09/17 07:29:30;;;;;;;7.63;6.93;;;;;;;;;;4952357;29;20181;-77
2023/09/17 07:31:56;;;;;;;8.13;6.93;;;;;;;;;;4969233;28;20201;-81
2023/09/17 07:34:24;;;;;;;9.37;7.10;;;;;;;;;;4954789;28;20188;-82
2023/09/17 07:36:51;;;;;;;9.00;6.97;;;;;;;;;;4932560;29;20210;-79
2023/09/17 07:39:18;;;;;;;7.47;6.77;;;;;;;;;;4949218;28;20217;-81
2023/09/17 07:41:44;;;;;;;7.10;6.40;;;;;;;;;;4952233;28;20789;-79
2023/09/17 07:44:12;;;;;;;7.10;6.50;;;;;;;;;;4952846;29;20754;-78
2023/09/17 07:46:38;;;;;;;7.70;6.80;;;;;;;;;;4951061;28;20259;-81
2023/09/17 07:49:04;;;;;;;8.13;7.30;;;;;;;;;;4945223;29;20184;-79
2023/09/17 07:51:30;;;;;;;7.77;6.97;;;;;;;;;;4947859;29;20665;-79
2023/09/17 07:53:56;;;;;;;7.43;6.50;;;;;;;;;;4948227;28;20565;-80
2023/09/17 07:56:22;;;;;;;7.40;6.67;;;;;;;;;;4950287;28;20200;-79
2023/09/17 07:58:48;;;;;;;8.33;7.07;;;;;;;;;;4949614;29;20200;-79
2023/09/17 08:01:15;;;;;;;7.57;6.80;;;;;;;;;;4948235;29;20243;-77
2023/09/17 08:03:41;;;;;;;7.53;6.83;;;;;;;;;;4953390;28;20209;-80
2023/09/17 08:06:07;;;;;;;7.57;6.87;;;;;;;;;;4948824;28;20185;-80
2023/09/17 08:08:33;;;;;;;7.80;7.10;;;;;;;;;;4952211;29;20316;-77
2023/09/17 08:10:59;;;;;;;7.47;6.77;;;;;;;;;;4953001;28;20256;-84
2023/09/17 08:13:26;;;;;;;7.53;6.83;;;;;;;;;;4951098;28;20197;-85
2023/09/17 08:15:52;;;;;;;6.90;6.30;;;;;;;;;;4955955;29;20204;-82
2023/09/17 08:18:19;;;;;;;7.17;6.53;;;;;;;;;;4934863;29;20252;-80
2023/09/17 08:20:45;;;;;;;7.43;6.73;;;;;;;;;;4951467;29;20187;-80
2023/09/17 08:23:11;;;;;;;7.93;7.10;;;;;;;;;;4954859;28;20296;-81
2023/09/17 08:25:59;;;;;;;7.00;6.40;;;;;;;;;;4954562;29;20212;-81
2023/09/17 08:28:45;;;;;;;7.27;6.57;;;;;;;;;;4951858;28;20626;-81
2023/09/17 08:31:32;;;;;;;7.30;6.67;;;;;;;;;;4949251;29;20198;-81
2023/09/17 08:34:18;;;;;;;7.83;7.03;;;;;;;;;;4943608;28;20272;-80
2023/09/17 08:36:49;;;;;;;7.37;6.67;;;;;;;;;;4949656;29;20206;-82
2023/09/17 08:39:15;;;;;;;6.73;6.13;;;;;;;;;;4965979;28;20256;-80
2023/09/17 08:41:42;;;;;;;7.47;6.33;;;;;;;;;;4951932;29;20213;-81
2023/09/17 08:44:09;;;;;;;6.80;5.90;;;;;;;;;;4955496;29;20334;-82
2023/09/17 08:46:37;;;;;;;7.03;6.33;;;;;;;;;;4951475;29;20189;-82
2023/09/17 08:49:03;;;;;;;6.70;6.10;;;;;;;;;;4950348;28;20182;-82
2023/09/17 08:51:32;;;;;;;11.53;6.33;;;;;;;;;;4933167;29;20182;-82
2023/09/17 08:54:02;;;;;;;6.30;5.80;;;;;;;;;;4951344;28;20200;-81
2023/09/17 08:56:31;;;;;;;6.20;5.60;;;;;;;;;;4965805;28;20193;-82
2023/09/17 08:59:01;;;;;;;6.37;5.70;;;;;;;;;;4952601;28;20189;-82
2023/09/17 09:01:27;;;;;;;6.50;5.90;;;;;;;;;;4970323;28;20666;-82
2023/09/17 09:03:54;;;;;;;6.30;5.70;;;;;;;;;;4954303;28;20224;-82
2023/09/17 09:06:25;;;;;;;6.20;5.60;;;;;;;;;;4953714;29;20181;-81
2023/09/17 09:08:52;;;;;;;5.90;5.40;;;;;;;;;;4952374;29;20588;-81
2023/09/17 09:11:19;;;;;;;6.17;5.67;;;;;;;;;;4921224;29;20221;-81
2023/09/17 09:13:46;;;;;;;5.93;5.37;;;;;;;;;;4937097;29;20197;-82
2023/09/17 09:16:13;;;;;;;5.70;5.20;;;;;;;;;;4971261;28;20193;-82
2023/09/17 09:18:39;;;;;;;5.73;5.10;;;;;;;;;;4948993;29;20711;-82
2023/09/17 09:21:08;;;;;;;5.80;5.30;;;;;;;;;;4953225;29;20742;-81
2023/09/17 09:23:35;;;;;;;6.53;5.10;;;;;;;;;;4950901;28;20207;-82
2023/09/17 09:26:03;;;;;;;6.67;5.20;;;;;;;;;;4955688;29;20246;-82
2023/09/17 09:28:32;;;;;;;5.03;4.60;;;;;;;;;;4955555;28;20203;-82
2023/09/17 09:30:59;;;;;;;5.50;5.00;;;;;;;;;;4955212;29;20190;-82
2023/09/17 09:33:26;;;;;;;5.33;4.83;;;;;;;;;;4955153;29;20187;-82
2023/09/17 09:35:54;;;;;;;6.87;5.20;;;;;;;;;;4956721;29;20187;-82
2023/09/17 09:38:21;;;;;;;5.20;4.70;;;;;;;;;;4953466;29;20233;-82
2023/09/17 09:40:48;;;;;;;5.47;4.97;;;;;;;;;;4923243;29;20192;-82
2023/09/17 09:43:29;;;;;;;5.23;4.43;;;;;;;;;;4939570;29;20224;-82
2023/09/17 09:45:55;;;;;;;4.97;4.57;;;;;;;;;;4954509;29;20181;-82
2023/09/17 09:48:21;;;;;;;5.00;4.43;;;;;;;;;;4922835;29;20295;-82
2023/09/17 09:50:48;;;;;;;6.80;4.87;;;;;;;;;;4954326;29;20192;-82
2023/09/17 09:53:14;;;;;;;5.27;4.63;;;;;;;;;;4937367;29;20577;-82
2023/09/17 09:55:40;;;;;;;5.77;4.23;;;;;;;;;;4969791;28;20191;-82
2023/09/17 09:58:08;;;;;;;5.57;4.10;;;;;;;;;;4938255;29;20246;-82
2023/09/17 10:00:34;;;;;;;6.07;4.80;;;;;;;;;;4956008;29;20665;-82
2023/09/17 10:03:01;;;;;;;5.00;4.50;;;;;;;;;;4954260;29;20611;-83
2023/09/17 10:05:34;;;;;;;7.17;4.60;;;;;;;;;;4938783;29;20188;-82
2023/09/17 10:08:04;;;;;;;5.63;4.53;;;;;;;;;;4937352;29;20201;-82
2023/09/17 10:10:31;;;;;;;8.93;4.97;;;;;;;;;;4921314;29;20192;-82
2023/09/17 10:12:57;;;;;;;5.47;4.60;;;;;;;;;;4949944;29;20204;-83
2023/09/17 10:15:23;;;;;;;4.63;4.23;;;;;;;;;;4950140;29;20732;-82
2023/09/17 10:17:50;;;;;;;6.57;4.33;;;;;;;;;;4938290;29;20227;-82
2023/09/17 10:20:18;;;;;;;6.87;4.50;;;;;;;;;;4953058;28;20181;-83
2023/09/17 10:22:46;;;;;;;6.73;4.50;;;;;;;;;;4953574;29;20573;-83
2023/09/17 10:25:16;;;;;;;4.37;3.97;;;;;;;;;;4957530;29;20256;-82
2023/09/17 10:27:44;;;;;;;4.83;4.03;;;;;;;;;;4940232;29;20756;-83
2023/09/17 10:30:13;;;;;;;5.97;4.17;;;;;;;;;;4940437;29;20251;-82
2023/09/17 10:32:39;;;;;;;4.97;3.93;;;;;;;;;;4956654;28;20184;-82
2023/09/17 10:35:06;;;;;;;5.70;4.30;;;;;;;;;;4938747;29;20192;-81
2023/09/17 10:37:33;;;;;;;6.30;3.97;;;;;;;;;;4957017;29;20302;-82
2023/09/17 10:40:00;;;;;;;6.60;3.90;;;;;;;;;;4955900;29;20188;-82
2023/09/17 10:42:27;;;;;;;6.80;4.20;;;;;;;;;;4937098;29;20210;-82
2023/09/17 10:44:56;;;;;;;6.87;3.80;;;;;;;;;;4953534;29;20811;-82
2023/09/17 10:47:24;;;;;;;5.23;3.60;;;;;;;;;;4970634;28;20213;-81
2023/09/17 10:49:51;;;;;;;5.87;3.70;;;;;;;;;;4969285;28;20649;-82
2023/09/17 10:52:17;;;;;;;8.87;4.17;;;;;;;;;;4936621;29;20697;-81
2023/09/17 10:54:44;;;;;;;6.53;3.57;;;;;;;;;;4937363;29;20203;-84
2023/09/17 10:57:27;;;;;;;8.63;4.23;;;;;;;;;;4953331;28;20204;-78
2023/09/17 10:59:55;;;;;;;6.37;4.03;;;;;;;;;;4966082;28;20203;-77
2023/09/17 11:02:22;;;;;;;6.63;4.00;;;;;;;;;;4951993;28;20557;-79
2023/09/17 11:04:48;;;;;;;5.43;4.17;;;;;;;;;;4953568;28;20715;-79
2023/09/17 11:07:15;;;;;;;5.43;3.80;;;;;;;;;;4950037;28;20197;-79
2023/09/17 11:09:42;;;;;;;4.77;4.00;;;;;;;;;;4950295;28;20212;-81
2023/09/17 11:12:09;;;;;;;5.13;3.90;;;;;;;;;;4946530;28;20192;-81
2023/09/17 11:14:35;;;;;;;5.17;3.70;;;;;;;;;;4968780;28;20383;-80
2023/09/17 11:17:04;;;;;;;5.83;3.80;;;;;;;;;;4955152;29;20220;-81
2023/09/17 11:19:30;;;;;;;5.73;3.93;;;;;;;;;;4974957;28;20185;-81
2023/09/17 11:22:03;;;;;;;8.20;3.80;;;;;;;;;;4955648;28;20185;-81
2023/09/17 11:24:31;;;;;;;7.53;3.47;;;;;;;;;;4958449;28;20237;-82
2023/09/17 11:26:58;;;;;;;5.93;3.70;;;;;;;;;;4957350;29;20205;-80
2023/09/17 11:29:44;;;;;;;9.70;4.00;;;;;;;;;;4952179;29;20186;-80
2023/09/17 11:32:11;;;;;;;5.50;3.70;;;;;;;;;;4953042;29;20196;-80
2023/09/17 11:34:39;;;;;;;5.53;3.60;;;;;;;;;;4956092;28;20182;-80
2023/09/17 11:37:06;;;;;;;9.07;3.60;;;;;;;;;;4957359;29;20209;-80
2023/09/17 11:39:36;;;;;;;6.07;4.20;;;;;;;;;;4957523;29;20192;-80
2023/09/17 11:42:03;;;;;;;4.20;3.60;;;;;;;;;;4956982;28;20216;-80
2023/09/17 11:44:33;;;;;;;6.13;3.70;;;;;;;;;;4955683;28;20222;-80
2023/09/17 11:47:00;;;;;;;7.23;3.83;;;;;;;;;;4954148;29;20751;-80
2023/09/17 11:49:26;;;;;;;5.53;3.80;;;;;;;;;;4956776;28;20182;-80
2023/09/17 11:51:54;;;;;;;5.87;3.50;;;;;;;;;;4954640;29;20187;-76
2023/09/17 11:54:23;;;;;;;6.23;3.80;;;;;;;;;;4955909;28;20656;-80
2023/09/17 11:56:53;;;;;;;7.43;3.50;;;;;;;;;;4956744;29;20307;-81
2023/09/17 11:59:19;;;;;;;7.30;3.60;;;;;;;;;;4957404;29;20188;-81
2023/09/17 12:01:58;;;;;;;8.87;3.87;;;;;;;;;;4958481;29;20207;-81
2023/09/17 12:04:25;;;;;;;5.23;3.70;;;;;;;;;;4956646;29;20220;-80
2023/09/17 12:06:53;;;;;;;7.53;3.40;;;;;;;;;;4953723;29;20208;-82
2023/09/17 12:12:05;;;;;;;7.27;3.53;;;;;;;;;;4947283;29;20190;-79
2023/09/17 12:14:32;;;;;;;4.80;3.37;;;;;;;;;;4949733;29;20220;-79
2023/09/17 12:16:58;;;;;;;5.70;3.37;;;;;;;;;;4950090;28;20260;-80
2023/09/17 12:19:25;;;;;;;7.23;3.30;;;;;;;;;;4949723;29;20187;-80
2023/09/17 12:21:53;;;;;;;11.13;3.77;;;;;;;;;;4951805;28;20612;-80
2023/09/17 12:24:23;;;;;;;8.87;3.60;;;;;;;;;;4964438;28;20221;-79
2023/09/17 12:27:19;;;;;;;7.67;3.40;;;;;;;;;;4951162;29;20209;-80
2023/09/17 12:29:46;;;;;;;11.90;3.63;;;;;;;;;;4944100;29;20230;-79
2023/09/17 12:32:14;;;;;;;5.70;3.13;;;;;;;;;;4950025;28;20697;-79
2023/09/17 12:34:41;;;;;;;6.03;3.13;;;;;;;;;;4952143;28;20208;-80
2023/09/17 12:37:09;;;;;;;7.10;3.50;;;;;;;;;;4921658;29;20209;-80
2023/09/17 12:39:35;;;;;;;9.17;3.33;;;;;;;;;;4959248;28;20191;-80
2023/09/17 12:42:01;;;;;;;6.30;3.53;;;;;;;;;;4958560;28;20187;-81
2023/09/17 12:44:28;;;;;;;6.43;3.23;;;;;;;;;;4947548;28;20287;-80
2023/09/17 12:46:54;;;;;;;6.63;3.30;;;;;;;;;;4957878;28;20207;-80
2023/09/17 12:49:21;;;;;;;7.67;3.40;;;;;;;;;;4971890;28;20180;-80
2023/09/17 12:51:48;;;;;;;7.37;3.30;;;;;;;;;;4955036;28;20220;-79
2023/09/17 12:54:14;;;;;;;6.50;3.00;;;;;;;;;;4970334;28;20200;-81
2023/09/17 12:56:42;;;;;;;5.77;3.30;;;;;;;;;;4955826;29;20893;-81
2023/09/17 12:59:08;;;;;;;10.03;3.23;;;;;;;;;;4956405;28;20193;-81
2023/09/17 13:01:34;;;;;;;5.33;3.00;;;;;;;;;;4955848;28;20186;-81
2023/09/17 13:04:02;;;;;;;7.13;3.10;;;;;;;;;;4955471;29;20213;-81
2023/09/17 13:06:29;;;;;;;7.57;3.03;;;;;;;;;;4958134;28;20192;-81
2023/09/17 13:08:55;;;;;;;6.70;2.70;;;;;;;;;;4954313;29;20190;-81
2023/09/17 13:11:22;;;;;;;4.50;2.90;;;;;;;;;;4956070;28;20265;-81
2023/09/17 13:13:49;;;;;;;5.30;2.90;;;;;;;;;;4955173;28;20242;-81
2023/09/17 13:16:16;;;;;;;4.53;2.80;;;;;;;;;;4957534;28;20194;-81
2023/09/17 13:18:44;;;;;;;5.67;2.87;;;;;;;;;;4952879;29;20214;-81
2023/09/17 13:21:10;;;;;;;10.03;2.80;;;;;;;;;;4956898;28;20195;-81
2023/09/17 13:23:37;;;;;;;5.50;2.60;;;;;;;;;;4955737;29;20218;-81
2023/09/17 13:26:04;;;;;;;6.53;2.70;;;;;;;;;;4955265;29;20259;-79
2023/09/17 13:28:30;;;;;;;6.07;2.90;;;;;;;;;;4953818;28;20203;-79
2023/09/17 13:30:56;;;;;;;7.63;3.13;;;;;;;;;;4956692;29;20184;-79
2023/09/17 13:33:22;;;;;;;5.13;2.93;;;;;;;;;;4954052;29;20353;-79
2023/09/17 13:35:52;;;;;;;8.90;3.30;;;;;;;;;;4957644;29;20199;-78
2023/09/17 13:38:18;;;;;;;6.80;3.17;;;;;;;;;;4952438;29;20709;-80
2023/09/17 13:40:49;;;;;;;9.17;3.50;;;;;;;;;;4958191;29;20200;-79
2023/09/17 13:43:15;;;;;;;7.47;2.87;;;;;;;;;;4960987;28;20625;-79
2023/09/17 13:45:55;;;;;;;5.87;2.87;;;;;;;;;;4959512;28;20272;-79
2023/09/17 13:48:21;;;;;;;9.17;3.20;;;;;;;;;;4953695;29;20331;-79
2023/09/17 13:50:48;;;;;;;6.00;2.97;;;;;;;;;;4952880;29;20185;-79
2023/09/17 13:53:14;;;;;;;8.40;3.27;;;;;;;;;;4957557;29;20322;-79
2023/09/17 13:55:40;;;;;;;7.50;3.03;;;;;;;;;;4957260;28;20287;-80
2023/09/17 13:58:07;;;;;;;7.57;2.90;;;;;;;;;;4956467;28;20249;-76
2023/09/17 14:00:33;;;;;;;7.87;3.20;;;;;;;;;;4950785;28;20192;-78
2023/09/17 14:03:03;;;;;;;10.83;3.43;;;;;;;;;;4953939;28;20188;-76
2023/09/17 14:05:31;;;;;;;7.97;3.00;;;;;;;;;;4949808;29;20214;-76
2023/09/17 14:07:57;;;;;;;9.63;3.20;;;;;;;;;;4954409;28;20298;-76
2023/09/17 14:10:24;;;;;;;7.63;3.00;;;;;;;;;;4951722;28;20280;-76
2023/09/17 14:12:50;;;;;;;7.17;3.10;;;;;;;;;;4951806;29;20287;-76
2023/09/17 14:15:16;;;;;;;10.63;3.37;;;;;;;;;;4951517;29;20700;-76
2023/09/17 14:17:42;;;;;;;7.60;2.90;;;;;;;;;;4949641;29;20614;-76
2023/09/17 14:20:09;;;;;;;8.57;2.90;;;;;;;;;;4951306;28;20187;-77
2023/09/17 14:22:36;;;;;;;6.13;2.80;;;;;;;;;;4951605;28;20195;-77
2023/09/17 14:25:04;;;;;;;8.03;2.80;;;;;;;;;;4951123;28;20909;-76
2023/09/17 14:27:30;;;;;;;6.23;2.73;;;;;;;;;;4951048;29;20208;-76
2023/09/17 14:29:56;;;;;;;9.07;3.13;;;;;;;;;;4949223;28;20187;-77
2023/09/17 14:32:24;;;;;;;8.07;2.83;;;;;;;;;;4949716;28;20191;-78
2023/09/17 14:34:50;;;;;;;6.03;2.47;;;;;;;;;;4950763;28;20199;-77
2023/09/17 14:37:17;;;;;;;7.43;2.70;;;;;;;;;;4948737;29;20294;-77
2023/09/17 14:39:43;;;;;;;8.35;2.90;;;;;;;;;;4951674;28;20188;-77
2023/09/17 14:42:09;;;;;;;6.30;2.70;;;;;;;;;;4952132;28;20668;-77
2023/09/17 14:44:35;;;;;;;7.63;2.67;;;;;;;;;;4950996;29;20343;-77
2023/09/17 14:47:01;;;;;;;7.80;2.80;;;;;;;;;;4950669;29;20207;-78